Time;durP1;ratioP1;P1;durP2;ratioP2;P2;SDS_P1;SDS_P2;PMS_P1;PMS_P2;Temp;Humidity;BMP_temperature;BMP_pressure;BME280_temperature;BME280_humidity;BME280_pressure;Samples;Min_cycle;Max_cycle;Signal;HPM_P1;HPM_P2
2024/01/03 00:00:17;;;;;;;7.68;1.58;;;8.60;99.90;;;;;;5063583;28;20098;-81
2024/01/03 00:02:47;;;;;;;9.35;1.45;;;8.60;99.90;;;;;;5054523;28;20045;-81
2024/01/03 00:05:13;;;;;;;;;;;8.60;99.90;;;;;;5055617;28;20037;-81
2024/01/03 00:07:40;;;;;;;5.57;1.45;;;8.60;99.90;;;;;;5050711;28;19923;-81
2024/01/03 00:10:23;;;;;;;2.90;0.55;;;8.50;99.90;;;;;;5047441;28;20071;-81
2024/01/03 00:12:48;;;;;;;6.40;2.38;;;8.50;99.90;;;;;;5039668;28;20067;-81
2024/01/03 00:15:36;;;;;;;7.20;1.83;;;8.60;99.90;;;;;;5077087;28;20177;-81
2024/01/03 00:18:06;;;;;;;0.50;0.45;;;8.50;99.90;;;;;;5055545;28;20163;-80
2024/01/03 00:20:38;;;;;;;0.82;0.70;;;8.50;99.90;;;;;;5038600;28;20036;-81
2024/01/03 00:23:13;;;;;;;0.80;0.45;;;8.60;99.90;;;;;;5055711;28;20068;-81
2024/01/03 00:25:39;;;;;;;0.60;0.60;;;8.60;99.90;;;;;;5038098;28;20041;-81
2024/01/03 00:28:05;;;;;;;1.45;0.50;;;8.60;99.90;;;;;;5061271;28;20536;-81
2024/01/03 00:30:31;;;;;;;3.60;0.20;;;8.60;99.90;;;;;;5057952;28;20729;-81
2024/01/03 00:32:57;;;;;;;1.27;0.60;;;8.60;99.90;;;;;;5060984;28;20068;-81
2024/01/03 00:35:29;;;;;;;3.17;0.77;;;8.50;99.90;;;;;;5054169;28;20391;-81
2024/01/03 00:37:54;;;;;;;5.97;1.33;;;8.50;99.90;;;;;;5064844;28;20525;-80
2024/01/03 00:40:57;;;;;;;4.50;0.80;;;8.50;99.90;;;;;;5054889;28;20064;-81
2024/01/03 00:43:23;;;;;;;4.18;0.60;;;8.50;99.90;;;;;;5064675;28;20044;-81
2024/01/03 00:45:50;;;;;;;4.07;1.05;;;8.40;99.90;;;;;;5058787;28;20028;-81
2024/01/03 00:48:17;;;;;;;1.27;0.60;;;8.40;99.90;;;;;;5051028;28;20119;-81
2024/01/03 00:50:42;;;;;;;5.28;0.47;;;8.40;99.90;;;;;;5033935;28;20035;-81
2024/01/03 00:53:09;;;;;;;4.05;0.77;;;8.40;99.90;;;;;;5073985;28;20036;-81
2024/01/03 00:55:35;;;;;;;0.50;0.50;;;8.40;99.90;;;;;;5064020;28;20032;-81
2024/01/03 00:58:02;;;;;;;2.53;0.47;;;8.30;99.90;;;;;;5056339;28;20573;-81
2024/01/03 01:00:27;;;;;;;2.08;0.88;;;8.40;99.90;;;;;;5061455;28;20046;-81
2024/01/03 01:02:53;;;;;;;5.88;1.02;;;8.40;99.90;;;;;;5038471;28;20111;-81
2024/01/03 01:05:20;;;;;;;5.95;0.95;;;8.30;99.90;;;;;;5063777;28;20098;-81
2024/01/03 01:07:45;;;;;;;1.88;0.40;;;8.30;99.90;;;;;;5058869;28;20092;-81
2024/01/03 01:10:11;;;;;;;1.40;0.70;;;8.30;99.90;;;;;;5041798;28;20115;-81
2024/01/03 01:12:37;;;;;;;2.53;0.95;;;8.40;99.90;;;;;;5062609;28;20072;-81
2024/01/03 01:15:03;;;;;;;2.70;0.57;;;8.40;99.90;;;;;;5054361;28;20036;-81
2024/01/03 01:17:29;;;;;;;1.52;0.50;;;8.40;99.90;;;;;;5055035;28;20041;-81
2024/01/03 01:19:54;;;;;;;1.40;0.55;;;8.40;99.90;;;;;;5083851;28;20036;-81
2024/01/03 01:22:21;;;;;;;2.58;0.90;;;8.50;99.90;;;;;;5036843;28;20036;-81
2024/01/03 01:24:46;;;;;;;5.43;1.25;;;8.50;99.90;;;;;;5061025;28;20074;-81
2024/01/03 01:27:12;;;;;;;7.72;0.40;;;8.60;99.90;;;;;;5052967;28;20064;-81
2024/01/03 01:29:38;;;;;;;1.40;0.68;;;8.60;99.90;;;;;;5056310;28;20140;-81
2024/01/03 01:32:04;;;;;;;2.65;0.30;;;8.60;99.90;;;;;;5069542;28;20399;-81
2024/01/03 01:34:30;;;;;;;1.70;0.30;;;8.70;99.90;;;;;;5061711;28;20083;-81
2024/01/03 01:37:09;;;;;;;2.47;0.50;;;8.70;99.90;;;;;;5046149;28;20052;-81
2024/01/03 01:39:35;;;;;;;1.65;0.43;;;8.70;99.90;;;;;;5043528;28;20032;-81
2024/01/03 01:42:01;;;;;;;2.45;0.40;;;8.80;99.90;;;;;;5073200;28;20483;-81
2024/01/03 01:44:26;;;;;;;2.25;0.93;;;8.80;99.90;;;;;;5025983;28;20040;-81
2024/01/03 01:46:55;;;;;;;0.57;0.40;;;8.90;99.90;;;;;;5050599;28;20439;-81
2024/01/03 01:49:22;;;;;;;0.47;0.32;;;8.90;99.90;;;;;;5064494;28;20037;-81
2024/01/03 01:51:48;;;;;;;3.95;0.38;;;8.90;99.90;;;;;;5049711;28;20509;-81
2024/01/03 01:54:15;;;;;;;1.83;1.42;;;8.90;99.90;;;;;;5054276;28;20068;-81
2024/01/03 01:56:41;;;;;;;7.18;0.85;;;9.00;99.90;;;;;;5049356;28;20040;-81
2024/01/03 01:59:15;;;;;;;2.80;1.38;;;9.00;99.90;;;;;;5045918;28;20499;-81
2024/01/03 02:01:41;;;;;;;1.48;0.40;;;9.00;99.90;;;;;;5045477;28;20128;-81
2024/01/03 02:04:09;;;;;;;1.75;0.75;;;9.00;99.90;;;;;;5055216;28;20487;-81
2024/01/03 02:06:35;;;;;;;4.22;0.70;;;9.10;99.90;;;;;;5035098;28;20044;-80
2024/01/03 02:09:01;;;;;;;2.00;0.57;;;9.10;99.90;;;;;;5052403;28;20101;-81
2024/01/03 02:11:27;;;;;;;2.40;0.50;;;9.10;99.90;;;;;;5036571;28;20036;-81
2024/01/03 02:13:53;;;;;;;9.18;1.13;;;9.10;99.90;;;;;;5049028;28;20068;-81
2024/01/03 02:16:18;;;;;;;2.42;0.70;;;9.10;99.90;;;;;;5052301;28;20041;-81
2024/01/03 02:18:44;;;;;;;3.20;0.22;;;9.10;99.90;;;;;;5050871;28;20646;-81
2024/01/03 02:21:15;;;;;;;2.15;0.70;;;9.10;99.90;;;;;;5053327;28;20495;-81
2024/01/03 02:23:41;;;;;;;2.03;0.40;;;9.10;99.90;;;;;;5049398;28;20048;-81
2024/01/03 02:26:08;;;;;;;5.25;0.50;;;9.20;99.90;;;;;;5072001;28;20116;-81
2024/01/03 02:28:34;;;;;;;0.30;0.20;;;9.20;99.90;;;;;;5051494;28;20038;-81
2024/01/03 02:31:00;;;;;;;2.08;1.05;;;9.20;99.90;;;;;;5048397;28;20041;-81
2024/01/03 02:33:26;;;;;;;0.30;0.30;;;9.20;99.90;;;;;;5049925;28;20041;-81
2024/01/03 02:35:52;;;;;;;0.73;0.40;;;9.20;99.90;;;;;;5051650;28;20083;-81
2024/01/03 02:38:24;;;;;;;0.68;0.15;;;9.20;99.90;;;;;;5046179;28;20050;-81
2024/01/03 02:40:51;;;;;;;2.13;0.88;;;9.10;99.90;;;;;;5041561;28;20033;-81
2024/01/03 02:43:17;;;;;;;1.85;0.63;;;9.20;99.90;;;;;;5051711;28;20508;-81
2024/01/03 02:45:43;;;;;;;3.53;0.55;;;9.10;99.90;;;;;;5045633;28;20129;-81
2024/01/03 02:48:09;;;;;;;5.35;0.60;;;9.10;99.90;;;;;;5050678;28;20129;-81
2024/01/03 02:50:34;;;;;;;3.65;1.48;;;9.10;99.90;;;;;;5048307;28;20048;-81
2024/01/03 02:53:02;;;;;;;2.20;0.35;;;9.00;99.90;;;;;;5039241;28;20040;-81
2024/01/03 02:55:28;;;;;;;0.28;0.20;;;8.90;99.90;;;;;;5043930;28;20033;-81
2024/01/03 02:57:53;;;;;;;0.43;0.40;;;8.80;99.90;;;;;;5052957;28;20055;-81
2024/01/03 03:00:19;;;;;;;0.25;0.13;;;8.80;99.90;;;;;;5046595;28;20041;-81
2024/01/03 03:02:45;;;;;;;1.85;0.68;;;8.80;99.90;;;;;;5047598;28;20044;-81
2024/01/03 03:05:11;;;;;;;2.17;0.32;;;8.70;99.90;;;;;;5042557;28;20076;-81
2024/01/03 03:07:37;;;;;;;0.13;0.13;;;8.70;99.90;;;;;;5051670;28;20084;-81
2024/01/03 03:10:04;;;;;;;0.30;0.30;;;8.70;99.90;;;;;;5054942;28;20071;-81
2024/01/03 03:12:29;;;;;;;2.80;0.47;;;8.60;99.90;;;;;;5048392;28;20514;-81
2024/01/03 03:14:55;;;;;;;0.35;0.20;;;8.70;99.90;;;;;;5027573;28;20067;-81
2024/01/03 03:17:21;;;;;;;3.00;0.20;;;8.60;99.90;;;;;;5052225;28;20040;-81
2024/01/03 03:19:47;;;;;;;0.50;0.15;;;8.60;99.90;;;;;;5045001;28;20067;-81
2024/01/03 03:22:13;;;;;;;0.80;0.30;;;8.50;99.90;;;;;;5029080;28;20037;-81
2024/01/03 03:24:39;;;;;;;1.02;0.20;;;8.50;99.90;;;;;;5026044;28;20036;-81
2024/01/03 03:27:04;;;;;;;4.85;0.65;;;8.50;99.90;;;;;;5044031;28;20043;-81
2024/01/03 03:29:30;;;;;;;1.70;0.28;;;8.40;99.90;;;;;;5031248;28;20044;-81
2024/01/03 03:31:56;;;;;;;0.50;0.32;;;8.40;99.90;;;;;;5048364;28;20037;-81
2024/01/03 03:34:35;;;;;;;1.23;0.30;;;8.40;99.90;;;;;;5050127;27;20088;-81
2024/01/03 03:37:08;;;;;;;3.63;0.43;;;8.40;99.90;;;;;;5071438;28;20052;-81
2024/01/03 03:39:34;;;;;;;0.55;0.40;;;8.40;99.90;;;;;;5043479;28;20041;-81
2024/01/03 03:42:01;;;;;;;0.95;0.38;;;8.30;99.90;;;;;;5047157;28;20097;-81
2024/01/03 03:44:27;;;;;;;1.75;0.65;;;8.30;99.90;;;;;;5049273;28;20041;-81
2024/01/03 03:46:53;;;;;;;4.60;0.85;;;8.30;99.90;;;;;;5023404;28;20160;-81
2024/01/03 03:49:18;;;;;;;0.38;0.20;;;8.40;99.90;;;;;;5048072;28;20115;-81
2024/01/03 03:51:44;;;;;;;5.35;0.68;;;8.40;99.90;;;;;;5043905;28;20045;-81
2024/01/03 03:54:10;;;;;;;1.13;0.80;;;8.50;99.90;;;;;;5049297;28;20029;-81
2024/01/03 03:56:36;;;;;;;3.17;0.77;;;8.50;99.90;;;;;;5027057;28;20048;-81
2024/01/03 03:59:01;;;;;;;4.93;2.03;;;8.60;99.90;;;;;;5054570;28;20148;-81
2024/01/03 04:01:27;;;;;;;6.80;0.70;;;8.60;99.90;;;;;;5038288;28;20047;-81
2024/01/03 04:03:53;;;;;;;10.90;1.10;;;8.60;99.90;;;;;;5038118;28;20106;-81
2024/01/03 04:06:19;;;;;;;7.97;1.30;;;8.70;99.90;;;;;;5033211;28;20779;-81
2024/01/03 04:08:48;;;;;;;4.50;0.85;;;8.80;99.90;;;;;;5050585;28;20127;-81
2024/01/03 04:11:13;;;;;;;8.15;1.83;;;8.80;99.90;;;;;;5037989;28;20048;-81
2024/01/03 04:13:39;;;;;;;6.88;1.05;;;8.90;99.90;;;;;;5031871;28;20037;-81
2024/01/03 04:16:09;;;;;;;7.32;1.80;;;9.00;99.90;;;;;;5027089;28;20041;-81
2024/01/03 04:18:35;;;;;;;2.60;1.13;;;9.10;99.90;;;;;;5051220;28;20040;-81
2024/01/03 04:21:06;;;;;;;4.53;0.55;;;9.20;99.90;;;;;;5043872;28;20483;-81
2024/01/03 04:23:33;;;;;;;10.50;2.55;;;9.10;99.90;;;;;;5049966;28;20047;-81
2024/01/03 04:26:00;;;;;;;8.95;1.70;;;9.20;99.90;;;;;;5044176;28;20102;-81
2024/01/03 04:28:25;;;;;;;3.47;1.33;;;9.30;99.90;;;;;;5053932;28;20110;-81
2024/01/03 04:30:51;;;;;;;6.10;1.50;;;9.40;99.90;;;;;;5054378;28;20041;-81
2024/01/03 04:33:17;;;;;;;3.88;1.00;;;9.40;99.90;;;;;;5044288;28;20059;-81
2024/01/03 04:35:49;;;;;;;11.68;1.10;;;9.40;99.90;;;;;;5055136;28;20079;-81
2024/01/03 04:38:15;;;;;;;1.13;0.70;;;9.40;99.90;;;;;;5049542;28;20043;-81
2024/01/03 04:40:41;;;;;;;3.03;1.20;;;9.40;99.90;;;;;;5051399;28;20033;-81
2024/01/03 04:43:07;;;;;;;2.75;0.47;;;9.50;99.90;;;;;;5054119;28;20578;-82
2024/01/03 04:45:33;;;;;;;13.88;1.60;;;9.50;99.90;;;;;;5054379;28;20040;-82
2024/01/03 04:47:59;;;;;;;7.72;1.83;;;9.50;99.90;;;;;;5037693;28;20044;-82
2024/01/03 04:50:24;;;;;;;7.22;1.30;;;9.50;99.90;;;;;;5052498;28;20190;-82
2024/01/03 04:52:50;;;;;;;8.02;1.00;;;9.60;99.90;;;;;;5037367;28;20482;-82
2024/01/03 04:55:16;;;;;;;14.93;1.40;;;9.60;99.90;;;;;;5048284;28;20337;-82
2024/01/03 04:57:42;;;;;;;6.93;0.60;;;9.60;99.90;;;;;;5037085;28;20047;-82
2024/01/03 05:00:08;;;;;;;9.75;2.08;;;9.50;99.90;;;;;;5034720;28;20041;-82
2024/01/03 05:02:36;;;;;;;13.35;1.58;;;9.60;99.90;;;;;;5053354;28;20104;-81
2024/01/03 05:05:02;;;;;;;10.00;1.95;;;9.60;99.90;;;;;;5025145;28;20071;-81
2024/01/03 05:07:29;;;;;;;10.68;1.17;;;9.60;99.90;;;;;;5054335;28;20044;-81
2024/01/03 05:09:55;;;;;;;2.63;0.98;;;9.70;99.90;;;;;;5054037;28;20040;-81
2024/01/03 05:12:21;;;;;;;5.85;1.00;;;9.70;99.90;;;;;;5046014;28;20037;-81
2024/01/03 05:14:47;;;;;;;4.35;1.67;;;9.70;99.90;;;;;;5051152;28;20033;-81
2024/01/03 05:17:12;;;;;;;13.52;1.65;;;9.70;99.90;;;;;;5036701;28;20044;-81
2024/01/03 05:19:38;;;;;;;6.95;1.52;;;9.70;99.90;;;;;;5052933;28;20123;-81
2024/01/03 05:22:04;;;;;;;5.75;1.15;;;9.80;99.90;;;;;;5037135;28;20036;-82
2024/01/03 05:24:30;;;;;;;8.77;1.65;;;9.70;99.90;;;;;;5028633;28;20082;-82
2024/01/03 05:26:55;;;;;;;6.10;1.67;;;9.70;99.90;;;;;;5064118;28;20036;-82
2024/01/03 05:29:22;;;;;;;5.53;1.17;;;9.70;99.90;;;;;;5034537;28;20032;-82
2024/01/03 05:31:47;;;;;;;5.13;2.08;;;9.70;99.90;;;;;;5032341;28;20109;-82
2024/01/03 05:34:19;;;;;;;3.92;1.10;;;9.70;99.90;;;;;;5050788;28;20181;-82
2024/01/03 05:37:06;;;;;;;8.35;1.10;;;9.70;99.90;;;;;;5038730;28;20049;-81
2024/01/03 05:39:38;;;;;;;9.63;1.15;;;9.70;99.90;;;;;;5049017;28;20055;-81
2024/01/03 05:42:04;;;;;;;6.50;1.15;;;9.70;99.90;;;;;;5026952;28;20123;-81
2024/01/03 05:44:30;;;;;;;8.30;2.50;;;9.70;99.90;;;;;;5050299;28;20143;-81
2024/01/03 05:46:56;;;;;;;8.23;0.75;;;9.70;99.90;;;;;;5052079;28;20127;-81
2024/01/03 05:49:22;;;;;;;6.15;1.40;;;9.70;99.90;;;;;;5052867;28;20037;-81
2024/01/03 05:51:47;;;;;;;5.68;1.42;;;9.70;99.90;;;;;;5047245;28;20033;-82
2024/01/03 05:54:13;;;;;;;7.22;1.13;;;9.70;99.90;;;;;;5049761;28;20128;-82
2024/01/03 05:56:39;;;;;;;10.93;1.65;;;9.70;99.90;;;;;;5052956;28;20086;-81
2024/01/03 05:59:04;;;;;;;1.88;0.75;;;9.70;99.90;;;;;;5052671;28;20032;-81
2024/01/03 06:01:30;;;;;;;10.05;1.80;;;9.70;99.90;;;;;;5023357;28;20048;-81
2024/01/03 06:03:56;;;;;;;4.35;0.95;;;9.60;99.90;;;;;;5032422;28;20115;-81
2024/01/03 06:06:22;;;;;;;4.63;0.70;;;9.60;99.90;;;;;;5052637;28;20119;-81
2024/01/03 06:08:47;;;;;;;2.17;0.80;;;9.60;99.90;;;;;;5048726;28;20475;-82
2024/01/03 06:11:13;;;;;;;8.80;0.65;;;9.60;99.90;;;;;;5035041;28;20486;-82
2024/01/03 06:13:39;;;;;;;7.05;1.17;;;9.60;99.90;;;;;;5052521;28;20072;-82
2024/01/03 06:16:06;;;;;;;2.10;0.85;;;9.60;99.90;;;;;;5052976;28;20032;-82
2024/01/03 06:18:31;;;;;;;6.53;1.05;;;9.60;99.90;;;;;;5047373;28;20072;-82
2024/01/03 06:20:57;;;;;;;6.00;0.75;;;9.70;99.90;;;;;;5050396;28;20070;-82
2024/01/03 06:23:24;;;;;;;5.78;1.13;;;9.70;99.90;;;;;;5051994;28;20047;-82
2024/01/03 06:25:50;;;;;;;3.55;0.68;;;9.70;99.90;;;;;;5041684;28;20099;-82
2024/01/03 06:28:16;;;;;;;10.20;1.10;;;9.70;99.90;;;;;;5046839;28;20041;-82
2024/01/03 06:30:43;;;;;;;5.70;1.80;;;9.80;99.90;;;;;;5040201;28;20033;-82
2024/01/03 06:33:08;;;;;;;6.15;1.00;;;9.70;99.90;;;;;;5027975;28;20833;-82
2024/01/03 06:35:48;;;;;;;5.40;1.27;;;9.70;99.90;;;;;;5038392;28;20139;-82
2024/01/03 06:38:20;;;;;;;14.43;1.60;;;9.70;99.90;;;;;;5038245;28;20051;-82
2024/01/03 06:40:46;;;;;;;7.30;1.27;;;9.70;99.90;;;;;;5056245;28;20486;-82
2024/01/03 06:43:12;;;;;;;1.70;0.55;;;9.60;99.90;;;;;;5043605;28;20033;-82
2024/01/03 06:45:37;;;;;;;5.65;1.65;;;9.60;99.90;;;;;;5052062;28;20036;-81
2024/01/03 06:48:03;;;;;;;4.97;1.95;;;9.70;99.90;;;;;;5058643;28;20043;-81
2024/01/03 06:50:29;;;;;;;6.07;1.65;;;9.60;99.90;;;;;;5065777;28;20041;-81
2024/01/03 06:52:55;;;;;;;11.23;2.85;;;9.60;99.90;;;;;;5057846;28;20120;-82
2024/01/03 06:55:20;;;;;;;14.90;4.13;;;9.60;99.90;;;;;;5059291;28;20120;-82
2024/01/03 06:57:48;;;;;;;10.25;3.65;;;9.50;99.90;;;;;;5056848;28;20036;-82
2024/01/03 07:00:15;;;;;;;8.35;2.13;;;9.50;99.90;;;;;;5060461;28;20143;-82
2024/01/03 07:02:41;;;;;;;5.05;2.83;;;9.50;99.90;;;;;;5040152;28;20083;-82
2024/01/03 07:05:07;;;;;;;13.10;1.40;;;9.50;99.90;;;;;;5044481;28;20573;-82
2024/01/03 07:07:33;;;;;;;18.23;2.28;;;9.50;99.90;;;;;;5070164;28;20045;-81
2024/01/03 07:09:59;;;;;;;7.03;2.20;;;9.50;99.90;;;;;;5060260;28;20033;-81
2024/01/03 07:12:24;;;;;;;7.22;1.55;;;9.50;99.90;;;;;;5063260;28;20032;-81
2024/01/03 07:14:50;;;;;;;4.63;1.30;;;9.40;99.90;;;;;;5043793;28;20043;-82
2024/01/03 07:17:16;;;;;;;2.25;0.85;;;9.50;99.90;;;;;;5056479;28;20032;-83
2024/01/03 07:19:41;;;;;;;3.28;0.93;;;9.50;99.90;;;;;;5039532;28;20036;-82
2024/01/03 07:22:09;;;;;;;11.20;1.75;;;9.50;99.90;;;;;;5040527;28;20513;-82
2024/01/03 07:24:38;;;;;;;1.30;0.30;;;9.50;99.90;;;;;;5034161;28;20531;-83
2024/01/03 07:27:04;;;;;;;3.30;0.53;;;9.60;99.90;;;;;;5057291;28;20092;-82
2024/01/03 07:29:30;;;;;;;2.78;0.88;;;9.50;99.90;;;;;;5059464;28;20104;-82
2024/01/03 07:31:56;;;;;;;2.25;0.55;;;9.50;99.90;;;;;;5064132;28;20542;-82
2024/01/03 07:34:22;;;;;;;2.83;1.17;;;9.40;99.90;;;;;;5055846;28;20523;-82
2024/01/03 07:36:54;;;;;;;3.33;1.35;;;9.40;99.90;;;;;;5039129;28;20052;-82
2024/01/03 07:39:20;;;;;;;8.48;1.42;;;9.40;99.90;;;;;;5036712;28;20037;-82
2024/01/03 07:41:46;;;;;;;1.98;0.40;;;9.30;99.90;;;;;;5068119;28;20064;-82
2024/01/03 07:44:11;;;;;;;1.63;0.68;;;9.30;99.90;;;;;;5089152;28;20103;-82
2024/01/03 07:46:37;;;;;;;1.98;0.70;;;9.30;99.90;;;;;;5064634;28;20045;-82
2024/01/03 07:49:03;;;;;;;0.85;0.43;;;9.20;99.90;;;;;;5055824;28;20051;-82
2024/01/03 07:51:29;;;;;;;12.45;0.98;;;9.20;99.90;;;;;;5079804;28;20410;-82
2024/01/03 07:53:55;;;;;;;6.00;0.90;;;9.20;99.90;;;;;;5073264;28;20127;-82
2024/01/03 07:56:20;;;;;;;1.30;0.90;;;9.20;99.90;;;;;;5055480;28;20032;-82
2024/01/03 07:58:47;;;;;;;11.10;1.25;;;9.20;99.90;;;;;;5057802;28;20040;-82
2024/01/03 08:01:13;;;;;;;7.05;0.85;;;9.20;99.90;;;;;;5050702;28;20087;-82
2024/01/03 08:03:40;;;;;;;5.38;0.82;;;9.10;99.90;;;;;;5056746;28;20045;-82
2024/01/03 08:06:06;;;;;;;4.15;0.88;;;9.20;99.90;;;;;;5042186;28;20123;-82
2024/01/03 08:08:33;;;;;;;2.38;0.70;;;9.20;99.90;;;;;;5071467;28;20115;-82
2024/01/03 08:10:59;;;;;;;2.25;0.40;;;9.10;99.90;;;;;;5038166;28;20024;-82
2024/01/03 08:13:25;;;;;;;6.80;0.73;;;9.10;99.90;;;;;;5054229;28;20494;-82
2024/01/03 08:15:50;;;;;;;3.42;1.08;;;9.20;99.90;;;;;;5083391;28;20120;-82
2024/01/03 08:18:16;;;;;;;2.72;0.68;;;9.20;99.90;;;;;;5066723;28;20037;-82
2024/01/03 08:20:42;;;;;;;2.13;0.70;;;9.20;99.90;;;;;;5037916;28;20036;-82
2024/01/03 08:23:08;;;;;;;4.57;1.30;;;9.30;99.90;;;;;;5064519;28;20501;-82
2024/01/03 08:25:33;;;;;;;3.70;1.30;;;9.30;99.90;;;;;;5059723;28;20035;-82
2024/01/03 08:27:59;;;;;;;2.50;1.20;;;9.30;99.90;;;;;;5043910;28;20048;-82
2024/01/03 08:30:25;;;;;;;2.33;0.80;;;9.30;99.90;;;;;;5061463;28;20097;-83
2024/01/03 08:32:51;;;;;;;2.83;0.52;;;9.40;99.90;;;;;;5053678;28;20124;-85
2024/01/03 08:35:23;;;;;;;6.30;1.00;;;9.40;99.90;;;;;;5072623;28;20047;-86
2024/01/03 08:38:03;;;;;;;1.35;1.17;;;9.40;99.90;;;;;;5035328;28;20043;-83
2024/01/03 08:40:29;;;;;;;7.57;1.42;;;9.40;99.90;;;;;;5069530;28;20076;-83
2024/01/03 08:42:54;;;;;;;5.07;1.60;;;9.40;99.90;;;;;;5060985;28;20526;-84
2024/01/03 08:45:20;;;;;;;2.45;1.13;;;9.40;99.90;;;;;;5057488;28;20036;-83
2024/01/03 08:47:46;;;;;;;2.55;1.15;;;9.40;99.90;;;;;;5072409;28;20036;-83
2024/01/03 08:50:13;;;;;;;2.25;1.10;;;9.40;99.90;;;;;;5061439;28;20040;-83
2024/01/03 08:52:39;;;;;;;1.73;0.73;;;9.40;99.90;;;;;;5054839;28;20035;-83
2024/01/03 08:55:05;;;;;;;2.55;0.85;;;9.40;99.90;;;;;;5060114;28;20387;-83
2024/01/03 08:57:31;;;;;;;4.18;1.00;;;9.50;99.90;;;;;;5056398;28;20078;-83
2024/01/03 08:59:57;;;;;;;6.57;1.45;;;9.40;99.90;;;;;;5059749;28;20032;-83
2024/01/03 09:02:23;;;;;;;5.40;1.35;;;9.40;99.90;;;;;;5037052;28;20372;-83
2024/01/03 09:04:49;;;;;;;1.20;0.75;;;9.40;99.90;;;;;;5058190;28;20043;-83
2024/01/03 09:07:16;;;;;;;8.13;1.02;;;9.40;99.90;;;;;;5064083;28;20051;-83
2024/01/03 09:09:41;;;;;;;3.05;0.90;;;9.40;99.90;;;;;;5055447;28;20402;-83
2024/01/03 09:12:07;;;;;;;6.55;1.20;;;9.50;99.90;;;;;;5057147;28;20082;-90
2024/01/03 09:14:40;;;;;;;4.90;1.25;;;9.40;99.90;;;;;;5041598;28;20406;-88
2024/01/03 09:17:06;;;;;;;11.68;2.10;;;9.40;99.90;;;;;;5068759;28;20115;-84
2024/01/03 09:19:31;;;;;;;1.60;0.80;;;9.50;99.90;;;;;;5041600;28;20124;-84
2024/01/03 09:21:59;;;;;;;5.88;1.13;;;9.50;99.90;;;;;;5033321;28;20044;-84
2024/01/03 09:24:27;;;;;;;8.88;2.38;;;9.50;99.90;;;;;;5053895;28;20040;-83
2024/01/03 09:26:52;;;;;;;7.22;1.38;;;9.50;99.90;;;;;;5060984;28;20048;-83
2024/01/03 09:29:19;;;;;;;4.78;1.20;;;9.50;99.90;;;;;;5056142;28;20046;-83
2024/01/03 09:31:44;;;;;;;8.98;2.22;;;9.50;99.90;;;;;;5067178;28;20432;-83
2024/01/03 09:34:11;;;;;;;3.40;1.05;;;9.60;99.90;;;;;;5038103;28;20040;-83
2024/01/03 09:36:43;;;;;;;2.05;0.82;;;9.60;99.90;;;;;;5046421;28;20044;-84
2024/01/03 09:39:22;;;;;;;4.03;1.33;;;9.60;99.90;;;;;;5052511;28;20498;-84
2024/01/03 09:41:48;;;;;;;6.82;0.88;;;9.60;99.90;;;;;;5046732;28;20033;-84
2024/01/03 09:44:14;;;;;;;1.67;0.95;;;9.60;99.90;;;;;;5042331;28;20131;-84
2024/01/03 09:46:42;;;;;;;3.30;1.00;;;9.70;99.90;;;;;;5034423;28;20122;-84
2024/01/03 09:49:09;;;;;;;4.22;0.90;;;9.70;99.90;;;;;;5022550;28;20040;-83
2024/01/03 09:51:35;;;;;;;6.50;1.25;;;9.90;99.90;;;;;;5027292;28;20036;-83
2024/01/03 09:54:02;;;;;;;3.85;1.20;;;10.00;99.90;;;;;;5029356;28;20040;-84
2024/01/03 09:56:28;;;;;;;9.65;1.17;;;10.10;99.90;;;;;;5015519;28;20388;-84
2024/01/03 09:58:53;;;;;;;3.70;1.33;;;10.20;99.90;;;;;;5033211;28;20033;-82
2024/01/03 10:01:19;;;;;;;3.38;1.23;;;10.30;99.90;;;;;;5049897;28;20037;-81
2024/01/03 10:03:48;;;;;;;3.67;1.20;;;10.30;99.90;;;;;;5043927;28;20123;-82
2024/01/03 10:06:14;;;;;;;5.80;1.05;;;10.50;99.90;;;;;;5064975;28;20040;-82
2024/01/03 10:08:41;;;;;;;4.32;1.27;;;10.50;99.90;;;;;;5019397;28;20044;-82
2024/01/03 10:11:20;;;;;;;8.05;1.50;;;10.50;99.90;;;;;;5017410;28;20513;-82
2024/01/03 10:13:49;;;;;;;10.75;2.78;;;10.50;99.90;;;;;;5044592;28;20048;-82
2024/01/03 10:16:22;;;;;;;1.40;0.50;;;10.40;99.90;;;;;;5027666;28;20039;-82
2024/01/03 10:19:06;;;;;;;6.18;0.98;;;10.30;99.90;;;;;;5037992;28;20628;-82
2024/01/03 10:21:32;;;;;;;4.13;1.48;;;10.20;99.90;;;;;;5045267;28;20087;-82
2024/01/03 10:24:03;;;;;;;3.80;1.48;;;10.20;99.90;;;;;;5038434;28;20491;-81
2024/01/03 10:26:29;;;;;;;1.83;1.30;;;10.10;99.90;;;;;;5016620;28;20043;-81
2024/01/03 10:29:09;;;;;;;9.55;2.15;;;10.10;99.90;;;;;;5040807;28;20083;-81
2024/01/03 10:31:35;;;;;;;4.30;0.88;;;10.00;99.90;;;;;;5021722;28;20037;-81
2024/01/03 10:34:02;;;;;;;4.47;1.35;;;9.90;99.90;;;;;;5041384;28;20105;-81
2024/01/03 10:36:34;;;;;;;11.38;2.30;;;9.90;99.90;;;;;;5052351;28;20057;-82
2024/01/03 10:39:10;;;;;;;7.15;2.20;;;9.90;99.90;;;;;;5060780;28;20544;-81
2024/01/03 10:41:38;;;;;;;13.07;1.35;;;9.90;99.90;;;;;;5056618;28;20049;-82
2024/01/03 10:44:06;;;;;;;8.40;1.67;;;9.90;99.90;;;;;;5039760;28;20525;-82
2024/01/03 10:46:32;;;;;;;7.15;1.25;;;9.80;99.90;;;;;;5056678;28;20045;-82
2024/01/03 10:48:57;;;;;;;5.15;2.05;;;9.80;99.90;;;;;;5040267;28;20552;-81
2024/01/03 10:51:25;;;;;;;8.65;2.05;;;9.80;99.90;;;;;;5056981;28;20445;-81
2024/01/03 10:53:58;;;;;;;8.07;1.88;;;9.80;99.90;;;;;;5056595;28;20526;-83
2024/01/03 10:56:24;;;;;;;7.00;1.15;;;9.80;99.90;;;;;;5056612;28;20040;-82
2024/01/03 10:58:52;;;;;;;4.78;1.33;;;9.90;99.90;;;;;;5060614;28;20040;-82
2024/01/03 11:01:29;;;;;;;4.20;0.88;;;10.00;99.90;;;;;;5064638;28;20036;-82
2024/01/03 11:04:09;;;;;;;7.57;1.60;;;10.00;99.90;;;;;;5063334;28;20401;-82
2024/01/03 11:06:52;;;;;;;6.78;1.48;;;10.10;99.90;;;;;;5078441;28;20044;-84
2024/01/03 11:09:19;;;;;;;12.25;2.45;;;10.20;99.90;;;;;;5058230;28;20048;-81
2024/01/03 11:11:45;;;;;;;3.90;1.50;;;10.20;99.90;;;;;;5041375;28;20510;-81
2024/01/03 11:14:17;;;;;;;9.52;1.75;;;10.20;99.90;;;;;;5064056;28;20033;-81
2024/01/03 11:16:43;;;;;;;5.88;1.67;;;10.10;99.90;;;;;;5046402;28;20067;-81
2024/01/03 11:19:09;;;;;;;10.43;2.28;;;10.00;99.90;;;;;;5057128;28;20028;-81
2024/01/03 11:21:35;;;;;;;12.57;1.38;;;10.10;99.90;;;;;;5059385;28;20041;-81
2024/01/03 11:24:24;;;;;;;11.55;1.90;;;10.10;99.90;;;;;;5033395;28;20040;-81
2024/01/03 11:26:58;;;;;;;7.72;1.83;;;10.00;99.90;;;;;;5052118;28;20438;-81
2024/01/03 11:29:44;;;;;;;3.72;1.52;;;10.00;99.90;;;;;;5032791;28;20493;-81
2024/01/03 11:32:12;;;;;;;3.72;1.50;;;9.90;99.90;;;;;;5044189;28;20045;-81
2024/01/03 11:34:48;;;;;;;11.77;1.73;;;9.90;99.90;;;;;;5032712;28;20048;-81
2024/01/03 11:37:27;;;;;;;9.27;1.70;;;9.90;99.90;;;;;;5033630;28;20482;-81
2024/01/03 11:39:55;;;;;;;6.07;1.60;;;9.80;99.90;;;;;;5034037;28;20052;-81
2024/01/03 11:42:34;;;;;;;7.38;1.70;;;9.90;99.90;;;;;;5049352;28;20048;-81
2024/01/03 11:45:07;;;;;;;4.78;0.95;;;9.80;99.90;;;;;;5042897;28;20040;-81
2024/01/03 11:47:34;;;;;;;7.93;1.83;;;9.70;99.90;;;;;;5029693;28;20032;-82
2024/01/03 11:50:03;;;;;;;5.72;2.80;;;9.70;99.90;;;;;;5028616;28;20044;-82
2024/01/03 11:52:39;;;;;;;9.70;3.75;;;9.60;99.90;;;;;;5028673;28;20041;-82
2024/01/03 11:55:09;;;;;;;11.95;2.10;;;9.60;99.90;;;;;;5038648;28;20028;-82
2024/01/03 11:57:35;;;;;;;;;;;9.60;99.90;;;;;;5041715;28;20505;-83
2024/01/03 12:00:02;;;;;;;9.48;2.25;;;9.60;99.90;;;;;;5050982;28;19964;-83
2024/01/03 12:02:28;;;;;;;4.40;1.38;;;9.50;99.90;;;;;;5041521;28;20041;-82
2024/01/03 12:05:01;;;;;;;7.78;1.63;;;9.50;99.90;;;;;;5042289;28;20192;-82
2024/01/03 12:07:28;;;;;;;7.40;1.15;;;9.50;99.90;;;;;;5048593;28;20095;-82
2024/01/03 12:09:55;;;;;;;9.20;1.70;;;9.50;99.90;;;;;;5025745;28;20040;-82
2024/01/03 12:12:21;;;;;;;6.55;1.23;;;9.60;99.90;;;;;;5043251;28;20111;-82
2024/01/03 12:14:52;;;;;;;17.05;2.17;;;9.60;99.90;;;;;;5041636;28;20434;-82
2024/01/03 12:17:32;;;;;;;5.32;1.50;;;9.60;99.90;;;;;;5042018;28;20037;-82
2024/01/03 12:20:15;;;;;;;6.95;1.65;;;9.70;99.90;;;;;;5032074;28;20435;-82
2024/01/03 12:22:41;;;;;;;6.70;1.35;;;9.70;99.90;;;;;;5032394;28;20045;-82
2024/01/03 12:25:15;;;;;;;5.82;0.75;;;9.70;99.90;;;;;;5042286;28;20146;-82
2024/01/03 12:27:41;;;;;;;10.48;1.83;;;9.70;99.90;;;;;;5042058;28;20044;-82
2024/01/03 12:30:17;;;;;;;2.80;1.25;;;9.70;99.90;;;;;;5041875;28;20094;-82
2024/01/03 12:32:47;;;;;;;4.45;0.80;;;9.70;99.90;;;;;;5041318;28;20049;-82
2024/01/03 12:35:14;;;;;;;2.35;1.25;;;9.70;99.90;;;;;;5033083;28;20044;-82
2024/01/03 12:37:47;;;;;;;12.05;1.73;;;9.80;99.90;;;;;;5043890;28;20041;-82
2024/01/03 12:40:26;;;;;;;8.52;1.00;;;9.80;99.90;;;;;;5035101;28;20043;-82
2024/01/03 12:42:52;;;;;;;8.15;1.67;;;9.80;99.90;;;;;;5044473;28;20047;-82
2024/01/03 12:45:18;;;;;;;3.42;0.80;;;9.80;99.90;;;;;;5042191;28;20044;-82
2024/01/03 12:47:44;;;;;;;7.90;0.90;;;9.80;99.90;;;;;;5042203;28;20087;-82
2024/01/03 12:50:09;;;;;;;6.68;1.13;;;9.90;99.90;;;;;;5043902;28;20036;-82
2024/01/03 12:52:35;;;;;;;6.53;1.27;;;9.90;99.90;;;;;;5047162;28;20049;-82
2024/01/03 12:55:03;;;;;;;5.28;0.70;;;9.90;99.90;;;;;;5050466;28;20045;-82
2024/01/03 12:57:29;;;;;;;5.93;1.10;;;10.00;99.90;;;;;;5041641;28;20083;-81